Time;durP1;ratioP1;P1;durP2;ratioP2;P2;SDS_P1;SDS_P2;PMS_P1;PMS_P2;Temp;Humidity;BMP_temperature;BMP_pressure;BME280_temperature;BME280_humidity;BME280_pressure;Samples;Min_cycle;Max_cycle;Signal;HPM_P1;HPM_P2
2022/09/13 00:00:13;;;;;;;1.50;1.13;;;;;;;;;;5040665;28;20437;-65
2022/09/13 00:02:40;;;;;;;1.70;1.50;;;12.80;99.90;;;;;;5047809;28;20428;-65
2022/09/13 00:05:07;;;;;;;1.00;1.00;;;11.80;99.90;;;;;;5049266;28;20482;-66
2022/09/13 00:07:34;;;;;;;1.33;1.23;;;11.80;99.90;;;;;;5047060;28;20425;-65
2022/09/13 00:10:01;;;;;;;0.82;0.82;;;;;;;;;;5049459;28;20428;-65
2022/09/13 00:12:27;;;;;;;0.75;0.75;;;11.80;99.90;;;;;;5048347;28;20479;-65
2022/09/13 00:14:54;;;;;;;1.00;0.90;;;11.80;99.90;;;;;;5049006;28;20915;-65
2022/09/13 00:17:21;;;;;;;1.15;1.15;;;11.70;99.90;;;;;;5044483;28;20433;-65
2022/09/13 00:19:48;;;;;;;0.85;0.85;;;11.60;99.90;;;;;;5039243;28;20429;-65
2022/09/13 00:22:16;;;;;;;0.90;0.90;;;11.60;99.90;;;;;;5045483;28;20434;-65
2022/09/13 00:24:43;;;;;;;1.10;1.10;;;11.60;99.90;;;;;;5042724;28;20434;-65
2022/09/13 00:27:11;;;;;;;1.00;1.00;;;11.60;99.90;;;;;;5031531;28;20437;-65
2022/09/13 00:29:38;;;;;;;1.00;1.00;;;11.60;99.90;;;;;;5034209;28;20453;-64
2022/09/13 00:32:04;;;;;;;1.97;0.93;;;11.60;99.90;;;;;;5041989;28;20486;-65
2022/09/13 00:34:31;;;;;;;1.13;1.13;;;11.60;99.90;;;;;;5047813;28;20854;-65
2022/09/13 00:36:58;;;;;;;1.65;1.25;;;11.60;99.90;;;;;;5037888;28;20433;-65
2022/09/13 00:39:24;;;;;;;0.97;0.97;;;11.60;99.90;;;;;;5041338;28;20434;-65
2022/09/13 00:41:51;;;;;;;1.20;1.20;;;11.60;99.90;;;;;;5044976;28;20433;-65
2022/09/13 00:44:49;;;;;;;0.80;0.80;;;11.60;99.90;;;;;;5048370;28;20432;-65
2022/09/13 00:47:26;;;;;;;1.17;1.17;;;11.60;99.90;;;;;;5044515;28;20432;-65
2022/09/13 00:49:58;;;;;;;0.93;0.93;;;11.60;99.90;;;;;;5041129;28;20435;-65
2022/09/13 00:52:28;;;;;;;0.90;0.90;;;11.50;99.90;;;;;;5056413;28;20429;-65
2022/09/13 00:55:19;;;;;;;1.33;1.08;;;11.50;99.90;;;;;;5047254;28;20479;-65
2022/09/13 00:57:47;;;;;;;1.10;1.00;;;11.50;99.90;;;;;;5041624;28;20433;-65
2022/09/13 01:00:16;;;;;;;0.85;0.85;;;;;;;;;;5048045;28;20429;-65
2022/09/13 01:02:45;;;;;;;1.23;1.13;;;;;;;;;;5047365;28;20433;-65
2022/09/13 01:05:17;;;;;;;0.88;0.88;;;;;;;;;;5048231;28;20464;-65
2022/09/13 01:07:47;;;;;;;1.10;1.10;;;;;;;;;;5049560;28;20961;-65
2022/09/13 01:10:14;;;;;;;1.20;1.10;;;;;;;;;;5046947;28;22746;-65
2022/09/13 01:13:10;;;;;;;1.00;1.00;;;;;;;;;;5046293;28;20563;-65
2022/09/13 01:15:39;;;;;;;0.90;0.90;;;;;;;;;;5044959;28;20433;-65
2022/09/13 01:18:07;;;;;;;1.60;0.88;;;;;;;;;;5047704;28;20459;-65
2022/09/13 01:20:53;;;;;;;0.93;0.93;;;;;;;;;;5048675;28;20429;-65
2022/09/13 01:23:30;;;;;;;1.17;1.00;;;;;;;;;;5042589;28;20437;-64
2022/09/13 01:26:03;;;;;;;1.55;1.02;;;;;;;;;;5035087;28;20437;-65
2022/09/13 01:29:04;;;;;;;1.85;1.27;;;;;;;;;;5043846;28;20490;-65
2022/09/13 01:31:55;;;;;;;1.17;0.88;;;;;;;;;;5004030;28;20941;-65
2022/09/13 01:34:35;;;;;;;0.93;0.93;;;;;;;;;;4998690;28;20440;-65
2022/09/13 01:37:20;;;;;;;0.82;0.82;;;;;;;;;;4984448;28;20436;-64
2022/09/13 01:40:06;;;;;;;1.05;1.05;;;;;;;;;;5005770;28;20447;-64
2022/09/13 01:42:48;;;;;;;1.48;1.38;;;;;;;;;;5004698;28;20433;-65
2022/09/13 01:45:36;;;;;;;1.00;1.00;;;;;;;;;;5003197;28;20441;-65
2022/09/13 01:48:12;;;;;;;0.80;0.80;;;;;;;;;;5003781;28;20487;-65
2022/09/13 01:50:41;;;;;;;0.95;0.95;;;;;;;;;;5004138;28;20540;-65
2022/09/13 01:53:11;;;;;;;0.80;0.80;;;;;;;;;;5008006;28;20428;-65
2022/09/13 01:55:45;;;;;;;1.00;1.00;;;11.30;99.90;;;;;;5006263;28;21037;-65
2022/09/13 01:58:24;;;;;;;0.95;0.95;;;;;;;;;;4998981;28;20423;-64
2022/09/13 02:00:57;;;;;;;1.20;1.10;;;;;;;;;;5007995;28;20507;-64
2022/09/13 02:03:28;;;;;;;0.90;0.90;;;;;;;;;;5009237;28;21013;-64
2022/09/13 02:06:00;;;;;;;1.10;1.00;;;;;;;;;;4989803;28;20444;-65
2022/09/13 02:08:34;;;;;;;1.45;1.33;;;;;;;;;;5045468;28;20425;-64
2022/09/13 02:11:11;;;;;;;1.10;1.10;;;;;;;;;;5049648;28;20486;-64
2022/09/13 02:13:45;;;;;;;1.13;1.02;;;;;;;;;;5049037;28;20444;-64
2022/09/13 02:16:18;;;;;;;1.08;0.98;;;;;;;;;;5043659;28;20470;-64
2022/09/13 02:18:48;;;;;;;1.17;0.98;;;;;;;;;;5049044;28;20500;-64
2022/09/13 02:21:21;;;;;;;1.13;1.05;;;;;;;;;;5050141;28;20969;-64
2022/09/13 02:23:52;;;;;;;0.80;0.80;;;;;;;;;;5046487;28;20488;-65
2022/09/13 02:26:20;;;;;;;0.95;0.95;;;;;;;;;;5050405;28;20429;-64
2022/09/13 02:28:52;;;;;;;0.80;0.80;;;;;;;;;;5051329;28;20420;-64
2022/09/13 02:31:25;;;;;;;1.05;1.05;;;;;;;;;;5049192;28;20516;-65
2022/09/13 02:33:54;;;;;;;1.20;1.10;;;;;;;;;;5046906;28;20838;-65
2022/09/13 02:36:23;;;;;;;0.90;0.90;;;;;;;;;;5046109;28;20436;-65
2022/09/13 02:38:57;;;;;;;0.88;0.88;;;;;;;;;;5048152;28;20442;-66
2022/09/13 02:41:27;;;;;;;1.23;1.17;;;;;;;;;;5049808;28;20436;-65
2022/09/13 02:44:15;;;;;;;1.10;1.10;;;;;;;;;;5050701;28;20425;-65
2022/09/13 02:46:53;;;;;;;0.90;0.90;;;;;;;;;;5055891;28;20430;-65
2022/09/13 02:49:30;;;;;;;1.00;1.00;;;;;;;;;;5050574;28;20428;-65
2022/09/13 02:52:05;;;;;;;1.03;1.03;;;;;;;;;;5049441;28;20440;-67
2022/09/13 02:54:38;;;;;;;0.88;0.88;;;;;;;;;;5044510;28;20433;-64
2022/09/13 02:57:10;;;;;;;1.35;1.25;;;;;;;;;;5048899;28;20498;-65
2022/09/13 02:59:38;;;;;;;1.30;1.20;;;;;;;;;;5046409;28;20433;-65
2022/09/13 03:02:05;;;;;;;1.20;0.95;;;;;;;;;;5040348;28;20460;-65
2022/09/13 03:04:33;;;;;;;1.10;1.00;;;;;;;;;;5041539;28;20421;-65
2022/09/13 03:07:03;;;;;;;0.80;0.80;;;;;;;;;;5030640;28;20425;-64
2022/09/13 03:09:33;;;;;;;1.00;0.90;;;;;;;;;;5050139;28;20429;-65
2022/09/13 03:12:19;;;;;;;1.33;1.23;;;;;;;;;;5048112;28;20437;-65
2022/09/13 03:14:50;;;;;;;0.93;0.93;;;;;;;;;;5045991;28;20452;-64
2022/09/13 03:17:20;;;;;;;1.23;0.82;;;;;;;;;;5048142;28;20446;-64
2022/09/13 03:20:11;;;;;;;1.15;1.10;;;;;;;;;;5050858;28;20441;-65
2022/09/13 03:22:47;;;;;;;0.98;0.98;;;;;;;;;;5047505;28;20435;-65
2022/09/13 03:25:29;;;;;;;0.98;0.98;;;;;;;;;;5044353;28;20433;-65
2022/09/13 03:28:00;;;;;;;1.05;1.05;;;;;;;;;;5048028;28;20854;-65
2022/09/13 03:30:27;;;;;;;1.27;0.95;;;;;;;;;;5051234;28;20441;-65
2022/09/13 03:33:14;;;;;;;0.98;0.90;;;;;;;;;;5045828;28;20437;-64
2022/09/13 03:35:44;;;;;;;0.93;0.93;;;;;;;;;;5025341;28;20429;-64
2022/09/13 03:38:32;;;;;;;1.17;1.10;;;;;;;;;;5052784;28;20433;-65
2022/09/13 03:41:03;;;;;;;0.95;0.95;;;;;;;;;;5059231;28;20433;-65
2022/09/13 03:43:36;;;;;;;1.40;1.30;;;;;;;;;;5048678;28;20427;-64
2022/09/13 03:46:05;;;;;;;0.80;0.80;;;;;;;;;;5048335;28;21018;-64
2022/09/13 03:48:36;;;;;;;0.82;0.82;;;;;;;;;;5050605;28;20496;-64
2022/09/13 03:51:06;;;;;;;1.35;1.30;;;;;;;;;;5049463;28;20811;-64
2022/09/13 03:53:37;;;;;;;1.42;1.33;;;;;;;;;;5051123;28;20438;-64
2022/09/13 03:56:14;;;;;;;1.42;1.10;;;;;;;;;;5054591;28;20929;-65
2022/09/13 03:58:42;;;;;;;1.50;1.00;;;;;;;;;;5053577;28;20441;-65
2022/09/13 04:01:10;;;;;;;0.75;0.75;;;;;;;;;;5051882;28;20453;-64
2022/09/13 04:03:37;;;;;;;1.00;1.00;;;;;;;;;;5051379;28;20431;-64
2022/09/13 04:06:04;;;;;;;0.93;0.93;;;;;;;;;;5045009;28;20479;-65
2022/09/13 04:08:35;;;;;;;1.73;1.20;;;;;;;;;;5050028;28;20981;-65
2022/09/13 04:11:02;;;;;;;1.00;0.98;;;;;;;;;;5058645;28;20525;-65
2022/09/13 04:13:29;;;;;;;1.23;1.20;;;;;;;;;;5060713;28;20424;-64
2022/09/13 04:16:03;;;;;;;1.10;1.10;;;;;;;;;;5051299;28;21066;-65
2022/09/13 04:18:31;;;;;;;1.20;1.10;;;;;;;;;;5043902;28;20433;-64
2022/09/13 04:21:01;;;;;;;1.27;1.17;;;;;;;;;;5050330;28;20421;-65
2022/09/13 04:23:30;;;;;;;1.38;1.05;;;;;;;;;;5048940;28;20979;-65
2022/09/13 04:26:00;;;;;;;1.47;1.37;;;;;;;;;;5051392;28;20425;-65
2022/09/13 04:28:30;;;;;;;1.10;1.10;;;;;;;;;;5062470;28;20439;-65
2022/09/13 04:31:00;;;;;;;1.00;0.93;;;;;;;;;;5055012;28;20919;-65
2022/09/13 04:33:27;;;;;;;1.10;1.10;;;;;;;;;;5058839;28;20456;-66
2022/09/13 04:35:58;;;;;;;1.08;1.08;;;;;;;;;;5049509;28;20463;-65
2022/09/13 04:38:25;;;;;;;1.43;1.27;;;;;;;;;;5043973;28;20465;-65
2022/09/13 04:40:53;;;;;;;1.20;1.20;;;;;;;;;;5047663;28;20425;-65
2022/09/13 04:43:21;;;;;;;1.00;1.00;;;;;;;;;;5061966;28;20433;-66
2022/09/13 04:45:48;;;;;;;0.90;0.90;;;;;;;;;;5051617;28;20935;-66
2022/09/13 04:48:15;;;;;;;1.17;1.17;;;;;;;;;;5046909;28;20933;-66
2022/09/13 04:50:46;;;;;;;0.88;0.88;;;;;;;;;;5053223;28;20429;-65
2022/09/13 04:53:13;;;;;;;0.73;0.73;;;;;;;;;;5026341;28;20433;-65
2022/09/13 04:55:40;;;;;;;0.88;0.88;;;;;;;;;;5029545;28;21114;-65
2022/09/13 04:58:10;;;;;;;0.77;0.77;;;;;;;;;;5044785;28;20459;-65
2022/09/13 05:00:41;;;;;;;1.20;1.10;;;;;;;;;;5049794;28;20437;-66
2022/09/13 05:03:08;;;;;;;1.10;1.00;;;;;;;;;;5064475;28;20525;-66
2022/09/13 05:05:35;;;;;;;1.00;1.00;;;;;;;;;;5026136;28;20845;-66
2022/09/13 05:08:02;;;;;;;1.20;1.10;;;;;;;;;;5042956;28;20501;-66
2022/09/13 05:10:29;;;;;;;1.17;1.17;;;;;;;;;;5034155;28;20468;-66
2022/09/13 05:12:56;;;;;;;0.90;0.90;;;;;;;;;;5038992;28;20435;-65
2022/09/13 05:15:23;;;;;;;0.88;0.88;;;;;;;;;;5040193;28;20430;-66
2022/09/13 05:17:53;;;;;;;1.98;1.27;;;;;;;;;;5042349;28;20448;-66
2022/09/13 05:20:20;;;;;;;0.80;0.80;;;;;;;;;;5039819;28;20437;-66
2022/09/13 05:22:48;;;;;;;1.30;1.05;;;;;;;;;;5047478;28;20507;-66
2022/09/13 05:25:15;;;;;;;0.70;0.70;;;;;;;;;;5056301;28;20461;-66
2022/09/13 05:27:44;;;;;;;0.97;0.93;;;;;;;;;;5065274;28;20473;-66
2022/09/13 05:30:11;;;;;;;0.93;0.93;;;;;;;;;;5045069;28;20441;-66
2022/09/13 05:32:39;;;;;;;1.38;1.00;;;;;;;;;;5045754;28;20495;-66
2022/09/13 05:35:06;;;;;;;1.40;1.30;;;;;;;;;;5048331;28;20439;-66
2022/09/13 05:37:35;;;;;;;0.90;0.90;;;;;;;;;;5044392;28;20440;-66
2022/09/13 05:40:02;;;;;;;1.40;1.30;;;;;;;;;;5028877;28;20429;-66
2022/09/13 05:42:38;;;;;;;1.27;1.27;;;;;;;;;;5048172;28;20429;-66
2022/09/13 05:45:06;;;;;;;1.35;1.25;;;;;;;;;;5046241;28;20811;-66
2022/09/13 05:47:35;;;;;;;1.30;1.20;;;;;;;;;;5030559;28;20429;-66
2022/09/13 05:50:02;;;;;;;1.37;1.27;;;;;;;;;;5026869;28;20437;-66
2022/09/13 05:52:55;;;;;;;1.10;1.10;;;;;;;;;;5046166;28;20874;-66
2022/09/13 05:55:26;;;;;;;1.77;1.67;;;;;;;;;;5047605;28;20437;-68
2022/09/13 05:57:53;;;;;;;1.40;1.40;;;;;;;;;;5041298;28;20437;-66
2022/09/13 06:00:20;;;;;;;1.40;1.40;;;;;;;;;;5040038;28;20506;-66
2022/09/13 06:02:48;;;;;;;1.40;1.30;;;;;;;;;;5027110;28;20441;-66
2022/09/13 06:05:15;;;;;;;1.45;1.35;;;;;;;;;;5040471;28;20461;-66
2022/09/13 06:07:44;;;;;;;1.40;1.30;;;;;;;;;;5025206;28;20421;-66
2022/09/13 06:10:11;;;;;;;1.50;1.40;;;;;;;;;;5036227;28;20433;-66
2022/09/13 06:12:38;;;;;;;1.60;1.50;;;;;;;;;;5037788;28;20445;-66
2022/09/13 06:15:06;;;;;;;1.50;1.40;;;;;;;;;;5042835;28;20961;-66
2022/09/13 06:17:33;;;;;;;1.40;1.30;;;;;;;;;;5041518;28;20433;-66
2022/09/13 06:20:03;;;;;;;1.90;1.80;;;;;;;;;;5044598;28;20506;-67
2022/09/13 06:22:32;;;;;;;2.40;1.70;;;;;;;;;;5043950;28;20437;-66
2022/09/13 06:25:02;;;;;;;1.63;1.52;;;;;;;;;;5046728;28;20480;-66
2022/09/13 06:27:30;;;;;;;1.98;1.52;;;;;;;;;;5055259;28;20521;-66
2022/09/13 06:30:00;;;;;;;1.90;1.65;;;;;;;;;;5048148;28;20431;-66
2022/09/13 06:32:27;;;;;;;1.95;1.83;;;;;;;;;;5039102;28;20787;-66
2022/09/13 06:34:54;;;;;;;2.67;1.40;;;;;;;;;;5043422;28;20437;-66
2022/09/13 06:37:21;;;;;;;1.92;1.83;;;;;;;;;;5056189;28;20491;-67
2022/09/13 06:39:48;;;;;;;2.13;1.60;;;;;;;;;;5049611;28;20467;-67
2022/09/13 06:42:16;;;;;;;2.85;1.83;;;;;;;;;;5049078;28;20433;-66
2022/09/13 06:44:44;;;;;;;1.85;1.75;;;;;;;;;;5044525;28;20488;-66
2022/09/13 06:47:12;;;;;;;2.38;1.80;;;;;;;;;;5049525;28;20983;-66
2022/09/13 06:49:39;;;;;;;1.75;1.65;;;;;;;;;;5047828;28;20425;-66
2022/09/13 06:52:06;;;;;;;1.80;1.70;;;;;;;;;;5053603;28;20423;-66
2022/09/13 06:54:33;;;;;;;1.60;1.50;;;;;;;;;;5029852;28;20568;-66
2022/09/13 06:57:02;;;;;;;1.70;1.60;;;;;;;;;;5051613;28;20432;-66
2022/09/13 06:59:33;;;;;;;3.03;1.60;;;;;;;;;;5059858;28;20427;-65
2022/09/13 07:02:00;;;;;;;1.90;1.80;;;;;;;;;;5050377;28;20490;-65
2022/09/13 07:04:31;;;;;;;1.63;1.52;;;;;;;;;;5048723;28;20422;-65
2022/09/13 07:06:58;;;;;;;1.40;1.33;;;;;;;;;;5050450;28;20425;-65
2022/09/13 07:09:25;;;;;;;2.05;1.88;;;;;;;;;;5034631;28;20440;-65
2022/09/13 07:11:56;;;;;;;1.77;1.67;;;;;;;;;;5045140;28;20433;-65
2022/09/13 07:14:24;;;;;;;1.50;1.40;;;;;;;;;;5027352;28;20981;-65
2022/09/13 07:16:54;;;;;;;1.45;1.45;;;;;;;;;;5046329;28;20429;-65
2022/09/13 07:19:23;;;;;;;2.13;1.83;;;;;;;;;;5040754;28;20437;-65
2022/09/13 07:21:50;;;;;;;3.83;1.63;;;10.80;99.90;;;;;;5044475;28;20487;-65
2022/09/13 07:24:17;;;;;;;1.63;1.53;;;16.20;99.90;;;;;;5046476;28;20915;-65
2022/09/13 07:26:45;;;;;;;1.48;1.38;;;16.20;99.90;;;;;;5041021;28;20433;-65
2022/09/13 07:29:15;;;;;;;2.10;1.90;;;16.10;99.90;;;;;;5047573;28;20429;-65
2022/09/13 07:31:47;;;;;;;1.55;1.48;;;16.10;99.90;;;;;;5051620;28;20946;-65
2022/09/13 07:34:22;;;;;;;1.63;1.52;;;16.10;99.90;;;;;;5045772;28;20780;-66
2022/09/13 07:36:54;;;;;;;1.85;1.55;;;15.90;99.90;;;;;;5050312;28;20432;-65
2022/09/13 07:39:20;;;;;;;1.65;1.55;;;15.80;99.90;;;;;;5049321;28;20429;-65
2022/09/13 07:41:50;;;;;;;2.33;1.70;;;15.60;99.90;;;;;;5036295;28;20530;-65
2022/09/13 07:44:16;;;;;;;2.85;2.10;;;15.60;99.90;;;;;;5044436;28;20437;-65
2022/09/13 07:46:43;;;;;;;3.53;1.88;;;15.70;99.90;;;;;;5051169;28;20922;-67
2022/09/13 07:49:15;;;;;;;2.67;2.00;;;15.60;99.90;;;;;;5051235;28;20927;-67
2022/09/13 07:51:43;;;;;;;2.17;1.98;;;15.70;99.90;;;;;;5048947;28;20440;-66
2022/09/13 07:54:13;;;;;;;1.98;1.88;;;15.50;99.90;;;;;;5050048;28;20433;-66
2022/09/13 07:56:40;;;;;;;2.10;1.92;;;15.40;99.90;;;;;;5050722;28;20479;-66
2022/09/13 07:59:12;;;;;;;1.60;1.50;;;15.50;99.90;;;;;;5033185;28;20874;-66
2022/09/13 08:01:48;;;;;;;1.92;1.73;;;15.60;99.90;;;;;;5052377;28;20808;-66
2022/09/13 08:04:18;;;;;;;1.70;1.60;;;15.70;99.90;;;;;;5050158;28;20425;-67
2022/09/13 08:06:45;;;;;;;1.67;1.58;;;15.80;99.90;;;;;;5051049;28;20483;-67
2022/09/13 08:09:13;;;;;;;1.60;1.50;;;15.90;99.90;;;;;;5047356;28;20912;-65
2022/09/13 08:11:45;;;;;;;1.73;1.63;;;16.10;99.90;;;;;;5050467;28;20430;-66
2022/09/13 08:14:14;;;;;;;3.67;1.70;;;16.30;99.90;;;;;;5046721;28;20429;-66
2022/09/13 08:16:42;;;;;;;1.33;1.33;;;;;;;;;;5042444;28;20448;-66
2022/09/13 08:19:12;;;;;;;1.77;1.63;;;;;;;;;;5047492;28;20429;-66
2022/09/13 08:21:40;;;;;;;1.55;1.45;;;;;;;;;;5049723;28;20502;-66
2022/09/13 08:24:16;;;;;;;1.63;1.30;;;;;;;;;;5054442;28;20455;-66
2022/09/13 08:26:47;;;;;;;1.70;1.30;;;;;;;;;;5039064;28;20477;-66
2022/09/13 08:29:20;;;;;;;1.35;1.35;;;;;;;;;;5050063;28;20425;-66
2022/09/13 08:31:50;;;;;;;1.53;1.43;;;;;;;;;;5050469;28;20955;-66
2022/09/13 08:34:20;;;;;;;2.03;1.60;;;;;;;;;;5049233;28;20517;-66
2022/09/13 08:36:47;;;;;;;1.75;1.52;;;;;;;;;;5049598;28;20838;-66
2022/09/13 08:39:14;;;;;;;1.80;1.70;;;;;;;;;;5049903;28;20437;-66
2022/09/13 08:41:44;;;;;;;1.95;1.58;;;;;;;;;;5050200;28;20495;-64
2022/09/13 08:44:32;;;;;;;2.28;1.40;;;16.50;99.90;;;;;;5036963;28;20468;-64
2022/09/13 08:47:26;;;;;;;1.42;1.33;;;18.70;99.90;;;;;;5048800;28;20429;-65
2022/09/13 08:50:08;;;;;;;1.93;1.83;;;18.80;99.90;;;;;;5030872;28;21013;-65
2022/09/13 08:52:56;;;;;;;1.80;1.50;;;18.60;99.90;;;;;;5031278;28;20441;-66
2022/09/13 08:55:34;;;;;;;1.45;1.35;;;18.30;99.90;;;;;;5050092;28;20433;-66
2022/09/13 08:58:24;;;;;;;1.75;1.65;;;18.10;99.90;;;;;;5047681;28;20456;-66
2022/09/13 09:01:01;;;;;;;1.98;1.88;;;17.90;99.90;;;;;;5037588;28;20439;-66
2022/09/13 09:03:47;;;;;;;1.65;1.55;;;17.50;99.90;;;;;;5045861;28;20512;-66
2022/09/13 09:06:19;;;;;;;1.88;1.67;;;17.20;99.90;;;;;;5040910;28;20438;-65
2022/09/13 09:08:52;;;;;;;1.52;1.42;;;16.80;99.90;;;;;;5049575;28;20436;-64
2022/09/13 09:11:47;;;;;;;2.03;1.80;;;16.50;99.90;;;;;;5049612;28;20439;-65
2022/09/13 09:14:30;;;;;;;1.80;1.70;;;16.30;99.90;;;;;;5032321;28;20764;-65
2022/09/13 09:17:19;;;;;;;2.10;1.80;;;16.10;99.90;;;;;;5040616;28;20775;-65
2022/09/13 09:19:51;;;;;;;1.65;1.55;;;16.00;99.90;;;;;;5047300;28;20439;-65
2022/09/13 09:22:33;;;;;;;1.95;1.80;;;16.10;99.90;;;;;;5042369;28;20776;-66
2022/09/13 09:25:00;;;;;;;1.70;1.60;;;16.20;99.90;;;;;;5048637;28;20911;-65
2022/09/13 09:27:29;;;;;;;2.50;2.00;;;16.50;99.90;;;;;;5046636;28;20429;-66
2022/09/13 09:29:57;;;;;;;2.10;1.90;;;16.90;99.90;;;;;;5048450;28;20425;-66
2022/09/13 09:32:41;;;;;;;1.33;1.20;;;17.20;99.90;;;;;;5047693;28;20417;-66
2022/09/13 09:35:46;;;;;;;1.70;1.60;;;17.40;99.90;;;;;;5046875;28;20460;-66
2022/09/13 09:38:34;;;;;;;2.07;1.67;;;17.70;99.90;;;;;;5031704;28;20461;-66
2022/09/13 09:41:24;;;;;;;2.13;1.92;;;17.90;99.90;;;;;;5044461;28;20425;-67
2022/09/13 09:44:03;;;;;;;1.58;1.48;;;18.10;99.90;;;;;;5047476;28;20430;-66
2022/09/13 09:46:37;;;;;;;1.70;1.60;;;18.30;99.90;;;;;;5047664;28;20483;-69
2022/09/13 09:52:09;;;;;;;1.50;1.40;;;18.00;99.90;;;;;;5046454;28;20445;-66
2022/09/13 09:54:37;;;;;;;2.40;1.93;;;17.90;99.90;;;;;;5044422;28;21183;-66
2022/09/13 09:57:07;;;;;;;2.05;1.95;;;17.90;99.90;;;;;;5042150;28;20437;-66
2022/09/13 09:59:35;;;;;;;3.67;2.17;;;17.70;99.90;;;;;;5048971;28;20429;-65
2022/09/13 10:02:17;;;;;;;1.85;1.75;;;17.70;99.90;;;;;;5049383;28;20437;-66
2022/09/13 10:04:55;;;;;;;1.98;1.85;;;17.60;99.90;;;;;;5047068;28;20429;-66
2022/09/13 10:07:34;;;;;;;1.98;1.88;;;17.60;99.90;;;;;;5049211;28;20433;-66
2022/09/13 10:10:07;;;;;;;1.92;1.70;;;17.70;99.90;;;;;;5049095;28;20433;-65
2022/09/13 10:12:36;;;;;;;2.47;1.48;;;17.80;99.90;;;;;;5045989;28;20437;-66
2022/09/13 10:15:21;;;;;;;2.50;2.17;;;17.80;99.90;;;;;;5032873;28;20435;-65
2022/09/13 10:18:03;;;;;;;2.28;1.80;;;17.70;99.90;;;;;;5047699;28;20490;-66
2022/09/13 10:20:33;;;;;;;2.43;2.23;;;17.40;99.90;;;;;;5044003;28;20434;-66
2022/09/13 10:23:19;;;;;;;2.00;1.90;;;17.40;99.90;;;;;;5047498;28;20483;-66
2022/09/13 10:26:19;;;;;;;1.73;1.63;;;17.50;99.90;;;;;;5049911;28;20426;-66
2022/09/13 10:29:09;;;;;;;2.25;2.05;;;17.60;99.90;;;;;;5035152;28;20529;-65
2022/09/13 10:31:41;;;;;;;2.88;2.10;;;17.70;99.90;;;;;;5033130;28;20434;-66
2022/09/13 10:34:23;;;;;;;2.90;2.20;;;17.80;99.90;;;;;;5033514;28;21232;-65
2022/09/13 10:37:30;;;;;;;1.88;1.70;;;17.90;99.90;;;;;;5050288;28;20504;-65
2022/09/13 10:40:07;;;;;;;2.05;1.85;;;18.10;99.90;;;;;;5008068;28;20428;-65
2022/09/13 10:42:35;;;;;;;2.65;1.95;;;18.20;99.90;;;;;;5010300;28;20511;-66
2022/09/13 10:45:06;;;;;;;1.80;1.70;;;18.30;99.90;;;;;;5009737;28;20481;-65
2022/09/13 10:47:51;;;;;;;1.77;1.67;;;18.40;99.90;;;;;;5008181;28;20424;-65
2022/09/13 10:50:22;;;;;;;2.60;2.35;;;18.40;99.90;;;;;;5010068;28;20471;-66
2022/09/13 10:52:54;;;;;;;1.80;1.70;;;18.30;99.90;;;;;;5009614;28;20436;-66
2022/09/13 10:55:27;;;;;;;2.17;1.92;;;18.50;99.90;;;;;;5002848;28;20428;-66
2022/09/13 10:58:03;;;;;;;1.92;1.80;;;;;;;;;;5008388;28;20475;-66
2022/09/13 11:00:32;;;;;;;2.38;2.17;;;18.90;99.90;;;;;;5001685;28;20532;-66
2022/09/13 11:03:05;;;;;;;2.20;2.00;;;20.10;99.90;;;;;;4991595;28;20437;-66
2022/09/13 11:05:48;;;;;;;2.60;2.40;;;20.30;99.90;;;;;;5002963;28;20491;-66
2022/09/13 11:08:15;;;;;;;1.67;1.58;;;;;;;;;;5012313;28;20428;-65
2022/09/13 11:10:44;;;;;;;2.10;1.95;;;;;;;;;;5017863;28;20790;-65
2022/09/13 11:13:14;;;;;;;1.70;1.60;;;;;;;;;;5008081;28;20432;-65
2022/09/13 11:15:44;;;;;;;2.15;1.95;;;;;;;;;;5013778;28;20482;-66
2022/09/13 11:18:44;;;;;;;2.17;1.98;;;;;;;;;;5050257;28;20437;-66
2022/09/13 11:21:20;;;;;;;1.83;1.73;;;;;;;;;;5017447;28;20429;-65
2022/09/13 11:23:49;;;;;;;2.25;2.05;;;;;;;;;;5050125;28;20437;-65
2022/09/13 11:26:32;;;;;;;1.90;1.80;;;;;;;;;;5046774;28;20431;-65
2022/09/13 11:29:14;;;;;;;1.92;1.83;;;;;;;;;;5049221;28;20505;-65
2022/09/13 11:31:59;;;;;;;2.13;2.03;;;;;;;;;;5048264;28;21123;-65
2022/09/13 11:34:59;;;;;;;1.75;1.65;;;20.40;99.90;;;;;;5049785;28;20436;-65
2022/09/13 11:38:03;;;;;;;2.78;2.15;;;21.30;99.90;;;;;;5043318;28;20447;-65
2022/09/13 11:40:59;;;;;;;1.33;1.30;;;21.40;99.90;;;;;;5046497;28;20457;-65
2022/09/13 11:43:53;;;;;;;1.65;1.50;;;21.40;99.90;;;;;;5031803;28;20445;-66
2022/09/13 11:46:38;;;;;;;1.60;1.50;;;21.00;99.90;;;;;;5044033;28;20433;-66
2022/09/13 11:49:20;;;;;;;1.93;1.83;;;20.60;99.90;;;;;;5044326;28;20449;-65
2022/09/13 11:51:47;;;;;;;2.50;2.20;;;20.10;99.90;;;;;;5042946;28;20441;-65
2022/09/13 11:54:29;;;;;;;2.33;2.13;;;19.30;99.90;;;;;;5046790;28;20433;-65
2022/09/13 11:57:02;;;;;;;2.03;1.83;;;19.00;99.90;;;;;;5047091;28;20433;-65
2022/09/13 11:59:36;;;;;;;2.40;2.20;;;18.90;99.90;;;;;;5047644;28;20444;-66
2022/09/13 12:02:16;;;;;;;3.55;2.45;;;18.90;99.90;;;;;;5048715;28;20806;-65
2022/09/13 12:04:53;;;;;;;2.10;1.98;;;19.00;99.90;;;;;;5041085;28;20438;-65
2022/09/13 12:07:47;;;;;;;2.70;2.50;;;19.20;99.90;;;;;;5040018;28;20414;-65
2022/09/13 12:10:21;;;;;;;2.43;2.10;;;19.40;99.90;;;;;;5040993;28;20433;-65
2022/09/13 12:12:50;;;;;;;2.35;2.15;;;19.60;99.90;;;;;;5045581;28;20471;-66
2022/09/13 12:15:38;;;;;;;2.17;1.95;;;19.80;99.90;;;;;;5045830;28;20425;-66
2022/09/13 12:18:33;;;;;;;2.10;2.00;;;20.20;99.90;;;;;;5044229;28;20512;-65
2022/09/13 12:21:10;;;;;;;2.20;1.98;;;20.60;99.90;;;;;;5044256;28;20513;-65
2022/09/13 12:23:45;;;;;;;2.40;1.73;;;20.80;99.90;;;;;;5024862;28;20437;-66
2022/09/13 12:26:20;;;;;;;2.10;2.00;;;20.60;99.90;;;;;;5046656;28;20968;-65
2022/09/13 12:29:06;;;;;;;1.90;1.80;;;20.50;99.90;;;;;;5041687;28;20437;-65
2022/09/13 12:31:33;;;;;;;1.60;1.48;;;20.30;99.90;;;;;;5044615;28;20425;-65
2022/09/13 12:34:07;;;;;;;2.22;2.10;;;20.20;99.90;;;;;;5044439;28;20439;-65
2022/09/13 12:36:52;;;;;;;2.40;2.22;;;20.20;99.90;;;;;;5047814;28;20446;-64
2022/09/13 12:39:30;;;;;;;2.10;1.90;;;19.90;99.90;;;;;;5049567;28;20447;-65
2022/09/13 12:42:16;;;;;;;2.10;2.00;;;19.70;99.90;;;;;;5040098;28;20460;-65
2022/09/13 12:44:58;;;;;;;2.22;1.85;;;19.60;99.90;;;;;;5048158;28;20432;-65
2022/09/13 12:47:40;;;;;;;2.33;2.13;;;19.70;99.90;;;;;;5046154;28;20483;-65
2022/09/13 12:50:31;;;;;;;2.83;2.17;;;19.70;99.90;;;;;;5027919;28;20436;-65
2022/09/13 12:53:20;;;;;;;4.10;2.20;;;20.00;99.90;;;;;;5045579;28;20455;-65
2022/09/13 12:55:58;;;;;;;3.17;2.35;;;20.20;99.90;;;;;;5029288;28;20472;-65
2022/09/13 12:58:52;;;;;;;1.88;1.77;;;20.40;99.90;;;;;;5045839;28;20436;-65
2022/09/13 13:01:21;;;;;;;2.15;1.95;;;20.50;99.90;;;;;;5046539;28;20437;-65
2022/09/13 13:03:55;;;;;;;4.43;2.40;;;20.60;99.90;;;;;;5038395;28;20428;-65
2022/09/13 13:06:25;;;;;;;2.13;1.92;;;20.90;99.90;;;;;;5038032;28;20440;-65
2022/09/13 13:08:58;;;;;;;2.10;1.98;;;;;;;;;;5042650;28;20460;-65
2022/09/13 13:11:30;;;;;;;3.03;2.58;;;;;;;;;;5037958;28;20433;-65
2022/09/13 13:13:59;;;;;;;2.22;2.13;;;;;;;;;;5044355;28;20440;-65
2022/09/13 13:16:29;;;;;;;2.30;2.20;;;;;;;;;;5045367;28;21171;-65
2022/09/13 13:19:03;;;;;;;2.47;1.88;;;;;;;;;;5043373;28;20875;-65
2022/09/13 13:21:39;;;;;;;2.08;1.80;;;;;;;;;;5045351;28;20441;-65
2022/09/13 13:24:16;;;;;;;2.13;2.03;;;;;;;;;;5043139;28;20444;-65
2022/09/13 13:26:56;;;;;;;2.47;2.25;;;;;;;;;;5048438;28;20486;-65
2022/09/13 13:29:23;;;;;;;2.33;1.98;;;;;;;;;;5043747;28;20422;-65
2022/09/13 13:31:56;;;;;;;2.08;1.98;;;;;;;;;;5051969;28;21474;-65
2022/09/13 13:34:23;;;;;;;2.28;2.10;;;;;;;;;;5042818;28;20464;-65
2022/09/13 13:36:57;;;;;;;1.63;1.52;;;;;;;;;;5048823;28;21080;-65
2022/09/13 13:39:24;;;;;;;2.28;1.52;;;;;;;;;;5034406;28;20439;-66
2022/09/13 13:41:54;;;;;;;1.73;1.63;;;;;;;;;;5049132;28;20437;-66
2022/09/13 13:44:21;;;;;;;2.05;1.95;;;;;;;;;;5049075;28;20433;-65
2022/09/13 13:46:48;;;;;;;2.03;1.93;;;;;;;;;;5045490;28;20486;-65
2022/09/13 13:49:30;;;;;;;2.17;2.08;;;;;;;;;;5045533;28;20444;-65
2022/09/13 13:52:06;;;;;;;1.83;1.73;;;;;;;;;;5046837;28;20429;-64
2022/09/13 13:54:49;;;;;;;2.20;1.95;;;;;;;;;;5046431;28;20441;-64
2022/09/13 13:57:37;;;;;;;1.92;1.83;;;;;;;;;;5048208;28;20429;-65
2022/09/13 14:00:08;;;;;;;2.17;1.98;;;;;;;;;;5046751;28;20440;-65
2022/09/13 14:02:52;;;;;;;3.53;2.58;;;;;;;;;;5043779;28;20994;-65
2022/09/13 14:05:39;;;;;;;2.50;1.75;;;;;;;;;;5041573;28;20429;-65
2022/09/13 14:08:18;;;;;;;2.22;2.10;;;;;;;;;;5052446;28;20941;-65
2022/09/13 14:10:53;;;;;;;1.83;1.73;;;;;;;;;;5051474;28;21021;-65
2022/09/13 14:13:29;;;;;;;1.98;1.88;;;;;;;;;;5043838;28;20843;-65
2022/09/13 14:16:19;;;;;;;3.53;1.95;;;;;;;;;;5052037;28;20435;-65
2022/09/13 14:18:53;;;;;;;2.37;2.17;;;;;;;;;;5044518;28;20516;-65
2022/09/13 14:21:21;;;;;;;2.53;2.05;;;;;;;;;;5046261;28;20425;-64
2022/09/13 14:23:48;;;;;;;1.98;1.88;;;;;;;;;;5056447;28;20479;-64
2022/09/13 14:26:15;;;;;;;1.65;1.55;;;;;;;;;;5049042;28;20891;-65
2022/09/13 14:28:43;;;;;;;2.47;2.28;;;;;;;;;;5044133;28;20421;-64
2022/09/13 14:31:17;;;;;;;2.30;1.77;;;;;;;;;;5041846;28;20425;-64
2022/09/13 14:33:44;;;;;;;1.90;1.80;;;;;;;;;;5041804;28;20433;-64